Aviation Digital Data Service (ADDS)

Output produced by METARs form (0936 UTC 25 February 2018)
found at http://aviationweather.gov/adds/metars/
 
KCXY 250856Z AUTO 00000KT 3SM -RA BR BKN008 OVC011 08/07 A3005 RMK AO2 CIG 006V009 SLP178 P0014 60033 T00780067 56019
KCXY 250813Z AUTO 00000KT 2 1/2SM -RA BR OVC008 07/07 A3006 RMK AO2 CIG 006V010 P0002 T00720067
KCXY 250803Z AUTO 07003KT 3SM -RA BR BKN008 OVC012 08/07 A3005 RMK AO2 CIG 006V010 P0001 T00780067
KCXY 250756Z AUTO 09004KT 3SM -RA BR OVC010 07/07 A3005 RMK AO2 CIG 006V014 SLP179 P0006 T00720067
KCXY 250749Z AUTO 08004KT 3SM -RA BR OVC010 08/07 A3005 RMK AO2 CIG 007V014 P0006 T00780067
KCXY 250734Z AUTO 00000KT 2 1/2SM RA BR OVC010 07/07 A3006 RMK AO2 CIG 006V012 P0004 T00720067
KCXY 250719Z AUTO 14003KT 5SM -RA BR BKN008 OVC013 07/07 A3007 RMK AO2 CIG 006V011 P0001 T00720067
KCXY 250656Z AUTO 08005KT 4SM -RA BR OVC012 07/07 A3007 RMK AO2 SLP186 P0013 T00720067
KCXY 250643Z AUTO 08004KT 3SM +RA BR BKN014 OVC036 08/07 A3009 RMK AO2 P0012 T00780067
KCXY 250631Z AUTO 00000KT 2 1/2SM RA BR BKN014 OVC036 08/07 A3012 RMK AO2 P0006 T00780067
KCXY 250556Z AUTO 13005KT 8SM -RA OVC036 08/07 A3011 RMK AO2 RAB08 SLP198 P0001 60001 T00780067 10083 20078 58017
KCXY 250456Z AUTO 00000KT 10SM FEW014 OVC037 08/07 A3014 RMK AO2 SLP207 T00780067 401000067
KCXY 250451Z AUTO 14003KT 9SM SCT014 OVC037 08/07 A3014 RMK AO2
KCXY 250425Z AUTO 08003KT 10SM BKN014 BKN019 OVC039 08/07 A3014 RMK AO2 T00830067
KCXY 250404Z AUTO 11003KT 10SM BKN015 OVC040 08/07 A3015 RMK AO2 T00830067
KCXY 250356Z AUTO 00000KT 10SM SCT013 OVC040 08/07 A3016 RMK AO2 SLP215 T00830072
KCXY 250256Z AUTO 08004KT 9SM OVC038 08/07 A3015 RMK AO2 SLP213 60000 T00780067 58006
KCXY 250156Z 11003KT 9SM OVC041 08/07 A3017 RMK AO2 RAB06E32 SLP217 P0000 T00830072
KCXY 250056Z 11005KT 10SM FEW025 OVC045 08/07 A3016 RMK AO2 SLP216 T00830072
KCXY 242356Z 08003KT 6SM BR SCT037 OVC050 08/08 A3017 RMK AO2 RAE30 SLP219 P0000 60015 T00830078 10100 20083 50004
KCXY 242303Z 36003KT 3SM -RA BR SCT006 BKN016 OVC030 09/08 A3018 RMK AO2 P0000 T00890078
KCXY 242256Z 36003KT 4SM -RA BR SCT006 BKN013 OVC020 09/08 A3018 RMK AO2 SLP222 P0005 T00890078
KCXY 242248Z 05004KT 2SM -RA BR FEW006 BKN013 OVC020 09/08 A3017 RMK AO2 P0005 T00890078
KCXY 242243Z 05003KT 1 3/4SM -RA BR SCT006 BKN010 OVC021 09/08 A3017 RMK AO2 P0004 T00890078
KCXY 242224Z 01003KT 1 3/4SM -RA BR FEW008 BKN016 OVC022 09/08 A3017 RMK AO2 P0003 T00890078
KCXY 242216Z 34004KT 2SM -RA BR FEW009 BKN016 OVC044 09/08 A3017 RMK AO2 P0002 T00890078
KCXY 242207Z 35003KT 2SM -RA BR FEW009 BKN030 OVC044 09/08 A3016 RMK AO2 P0001 T00940083
KCXY 242156Z 00000KT 1 3/4SM -RA BR SCT013 OVC046 09/08 A3016 RMK AO2 RAE09B13 SLP215 P0003 T00940083
KCXY 242153Z 01003KT 1 3/4SM -RA BR SCT013 OVC046 09/08 A3016 RMK AO2 RAE09B13 P0003
KCXY 242112Z 13003KT 3SM BR FEW008 BKN013 OVC050 09/08 A3015 RMK AO2 RAE09 P0000 T00940083
KCXY 242102Z 12005KT 5SM -RA BR FEW008 BKN023 OVC050 09/08 A3014 RMK AO2 P0000 T00940078
KCXY 242056Z 14004KT 4SM -RA BR SCT021 OVC050 09/08 A3015 RMK AO2 SLP212 P0006 60007 T00940078 57006
KCXY 242052Z 14004KT 4SM -RA BR FEW011 BKN023 OVC050 09/08 A3015 RMK AO2 P0006
KCXY 242041Z 00000KT 2 1/2SM RA BR SCT011 BKN020 OVC050 09/08 A3016 RMK AO2 P0005 T00940083
KCXY 242006Z 00000KT 4SM RA BR BKN012 BKN024 OVC046 09/08 A3017 RMK AO2 P0001 T00940078
KCXY 241956Z 00000KT 4SM RA BR SCT012 BKN024 OVC044 09/08 A3016 RMK AO2 RAE34B56 SLP217 P0001 T00940078
KCXY 241954Z 00000KT 8SM SCT012 BKN024 OVC044 09/08 A3017 RMK AO2 RAE34 P0001
KCXY 241856Z 05003KT 6SM -RA BR OVC042 09/08 A3014 RMK AO2 RAB35 SLP210 P0000 T00940078
KCXY 241807Z 15005KT 4SM BR SCT010 OVC049 10/08 A3015 RMK AO2 T01000083
KCXY 241756Z COR 13006KT 4SM SCT010 OVC049 09/08 A3015 RMK AO2 RAB09E40 SLP211 P0000 60018 T00940078 10094 20072 58016
KCXY 241703Z COR 00000KT 3SM BR SCT004 OVC055 09/08 A3019 RMK AO2 T00940083
KCXY 241656Z 29005KT 2SM BR SCT004 OVC055 09/08 A3021 RMK AO2 RAE50 SLP231 P0002 T00940083
KCXY 241556Z 09003KT 2SM -RA BR FEW004 BKN042 OVC055 09/07 A3018 RMK AO2 SLP223 P0004 T00890072
KCXY 241503Z 00000KT 1 3/4SM -RA BR SCT033 BKN045 OVC065 08/07 A3019 RMK AO2 P0001 T00830072
KCXY 241456Z 00000KT 2SM RA BR SCT033 BKN045 OVC055 08/07 A3019 RMK AO2 SLP227 P0011 60012 T00830072 53005
KCXY 241356Z 00000KT 2SM RA BR SCT004 OVC030 08/07 A3019 RMK AO2 RAB45 SLP225 P0001 T00780072
KCXY 241256Z 00000KT 1 3/4SM BR OVC004 07/07 A3017 RMK AO2 SLP221 T00720067
KCXY 241222Z 00000KT 1 3/4SM BR OVC003 07/07 A3017 RMK AO2 T00720067
KCXY 241156Z 00000KT 2SM BR OVC003 07/06 A3018 RMK AO2 SLP222 70007 T00720061 10072 20067 53001
KCXY 241143Z AUTO 00000KT 1 3/4SM BR OVC003 07/07 A3018 RMK AO2 T00720067
KCXY 241127Z AUTO 00000KT 2SM BR OVC003 07/07 A3018 RMK AO2 T00670067
KCXY 241105Z AUTO 21004KT 1 1/4SM R08/5500VP6000FT BR OVC003 07/06 A3018 RMK AO2 T00670061
KCXY 241056Z AUTO 00000KT 2SM BR OVC003 07/07 A3017 RMK AO2 SLP221 T00670067
KCXY 241046Z AUTO 00000KT 1 1/2SM R08/6000VP6000FT BR OVC003 07/07 A3016 RMK AO2 T00670067
KCXY 241028Z AUTO 01003KT 1/2SM R08/2600V3000FT FG VV003 07/07 A3017 RMK AO2 T00720067
KCXY 241018Z AUTO 00000KT 3/4SM R08/3500VP6000FT BR OVC002 07/06 A3018 RMK AO2 T00720061
KCXY 241010Z AUTO 00000KT 1 1/2SM BR OVC002 07/06 A3018 RMK AO2 T00720061
KCXY 240956Z AUTO 00000KT 2 1/2SM BR OVC003 07/07 A3018 RMK AO2 SLP222 T00720067
KCXY 240953Z AUTO 00000KT 2 1/2SM BR OVC003 07/07 A3017 RMK AO2
KCXY 240933Z AUTO 00000KT 4SM BR OVC004 07/06 A3018 RMK AO2 T00720061
KCXY 240920Z AUTO 31003KT 4SM BR OVC005 07/06 A3018 RMK AO2 T00720061
KCXY 240856Z AUTO 00000KT 4SM BR BKN004 OVC007 07/06 A3017 RMK AO2 SLP220 T00720061 56010
KCXY 240804Z AUTO 00000KT 3SM BR OVC003 07/06 A3018 RMK AO2 T00720061
KCXY 240756Z AUTO 00000KT 2 1/2SM BR OVC003 07/06 A3018 RMK AO2 SLP225 T00670061
KCXY 240744Z AUTO 00000KT 2SM BR OVC003 07/07 A3018 RMK AO2 T00720067
KCXY 240739Z AUTO 00000KT 1 1/4SM R08/4500VP6000FT BR OVC003 07/06 A3018 RMK AO2 T00720061
KCXY 240727Z AUTO 00000KT 1/2SM R08/3000VP6000FT FG VV003 07/06 A3018 RMK AO2 T00670061
KCXY 240717Z AUTO 00000KT 3/4SM R08/3500V4500FT BR OVC002 07/06 A3018 RMK AO2 T00670061
KCXY 240656Z AUTO 00000KT 1 1/4SM R08/5000VP6000FT BR OVC002 07/07 A3019 RMK AO2 SLP226 T00670067
KCXY 240646Z AUTO 00000KT 1 3/4SM BR OVC003 07/06 A3020 RMK AO2 T00670061
KCXY 240618Z AUTO 29003KT 2 1/2SM BR OVC003 07/06 A3021 RMK AO2 T00720061
KCXY 240556Z AUTO 26004KT 3SM BR OVC004 07/06 A3020 RMK AO2 SLP231 T00720061 10072 20061 56017
KCXY 240525Z AUTO 25003KT 5SM BR OVC005 07/06 A3021 RMK AO2 T00720061
KCXY 240456Z AUTO 25005KT 5SM BR OVC004 07/06 A3021 RMK AO2 SLP233 T00720061 400720039
KCXY 240356Z AUTO 00000KT 4SM BR OVC004 07/06 A3022 RMK AO2 SLP238 T00670061
KCXY 240256Z AUTO 24003KT 4SM BR OVC004 07/06 A3025 RMK AO2 SLP248 T00670056 58019
KCXY 240215Z AUTO 18003KT 3SM BR OVC004 07/06 A3027 RMK AO2 T00670056
KCXY 240156Z 00000KT 3SM BR OVC005 06/06 A3028 RMK AO2 SLP257 T00610056
KCXY 240056Z 17003KT 3SM BR OVC005 06/06 A3029 RMK AO2 SLP260 T00610056
KCXY 232356Z 17005KT 7SM OVC006 07/05 A3031 RMK AO2 SLP267 60004 T00670050 10067 20050 56019
KCXY 232256Z 18005KT 2SM BR OVC006 07/05 A3032 RMK AO2 CIG 005V009 SLP270 T00670050
KCXY 232156Z 11004KT 1 1/2SM BR OVC006 06/06 A3034 RMK AO2 RAE13 CIG 004V009 SLP277 P0000 T00610056